| time (UTC) | temp C | wind direction | speed KPH | gust KPH | rain 1hr cm | rain 24hr cm | rain mn cm | humidity % | barometer mb |
| 20260507213038 | 24 | 309 | 3.2 | 17.7 | 0.00 | 0.00 | 0.00 | 33 | 1015.0 |
| 20260507210110 | 24 | 347 | 6.4 | 24.1 | 0.00 | 0.00 | 0.00 | 33 | 1015.5 |
| 20260507204535 | 24 | 324 | 4.8 | 17.7 | 0.00 | 0.00 | 0.00 | 34 | 1015.7 |
| 20260507201540 | 23 | 335 | 4.8 | 22.5 | 0.00 | 0.00 | 0.00 | 34 | 1015.8 |
| 20260507194536 | 21 | 307 | 6.4 | 17.7 | 0.00 | 0.00 | 0.00 | 39 | 1016.2 |
| 20260507191534 | 21 | 324 | 4.8 | 22.5 | 0.00 | 0.00 | 0.00 | 41 | 1016.4 |
| 20260507190035 | 20 | 324 | 8.0 | 22.5 | 0.00 | 0.00 | 0.00 | 43 | 1016.7 |
| 20260507184534 | 20 | 355 | 6.4 | 24.1 | 0.00 | 0.00 | 0.00 | 46 | 1016.9 |
| 20260507183056 | 20 | 14 | 6.4 | 19.3 | 0.00 | 0.00 | 0.00 | 48 | 1017.1 |
| 20260507181538 | 19 | 26 | 4.8 | 14.5 | 0.00 | 0.00 | 0.00 | 52 | 1017.2 |
| 20260507180033 | 18 | 28 | 8.0 | 22.5 | 0.00 | 0.00 | 0.00 | 54 | 1017.3 |
| 20260507174534 | 17 | 7 | 4.8 | 16.1 | 0.00 | 0.00 | 0.00 | 56 | 1017.4 |
| 20260507173034 | 17 | 21 | 4.8 | 16.1 | 0.00 | 0.00 | 0.00 | 59 | 1017.7 |
| 20260507171539 | 17 | 348 | 4.8 | 19.3 | 0.00 | 0.00 | 0.00 | 60 | 1017.7 |
| 20260507170040 | 16 | 12 | 4.8 | 17.7 | 0.00 | 0.00 | 0.00 | 62 | 1017.8 |
| 20260507164538 | 16 | 11 | 6.4 | 22.5 | 0.00 | 0.00 | 0.00 | 64 | 1017.9 |
| 20260507161539 | 15 | 304 | 1.6 | 9.7 | 0.00 | 0.00 | 0.00 | 67 | 1018.1 |
| 20260507153042 | 13 | 192 | 0.0 | 11.3 | 0.00 | 0.00 | 0.00 | 77 | 1018.6 |
| 20260507151541 | 12 | 131 | 3.2 | 9.7 | 0.00 | 0.00 | 0.00 | 79 | 1018.6 |
| 20260507151537 | 12 | 195 | 3.2 | 11.3 | 0.00 | 0.00 | 0.00 | 80 | 1018.7 |
| 20260507144538 | 11 | 198 | 4.8 | 9.7 | 0.00 | 0.00 | 0.00 | 80 | 1018.5 |
| 20260507143151 | 11 | 243 | 1.6 | 6.4 | 0.00 | 0.00 | 0.00 | 79 | 1018.5 |
| 20260507141535 | 11 | 172 | 3.2 | 8.0 | 0.00 | 0.00 | 0.00 | 80 | 1018.4 |
| 20260507134612 | 11 | 75 | 3.2 | 12.9 | 0.00 | 0.00 | 0.00 | 77 | 1018.1 |
| 20260507133034 | 12 | 343 | 3.2 | 14.5 | 0.00 | 0.00 | 0.00 | 76 | 1017.9 |
| 20260507131537 | 12 | 301 | 8.0 | 19.3 | 0.00 | 0.00 | 0.00 | 76 | 1017.8 |
| 20260507130035 | 12 | 301 | 9.7 | 25.7 | 0.00 | 0.00 | 0.00 | 76 | 1017.9 |
| 20260507124539 | 12 | 305 | 9.7 | 20.9 | 0.00 | 0.00 | 0.00 | 76 | 1017.9 |
| 20260507123031 | 11 | 316 | 4.8 | 20.9 | 0.00 | 0.00 | 0.00 | 78 | 1018.0 |
| 20260507121536 | 12 | 314 | 3.2 | 14.5 | 0.00 | 0.00 | 0.00 | 78 | 1017.9 |
| 20260507120036 | 11 | 300 | 3.2 | 12.9 | 0.00 | 0.00 | 0.00 | 77 | 1017.6 |
| 20260507114533 | 12 | 288 | 3.2 | 19.3 | 0.00 | 0.00 | 0.00 | 76 | 1017.6 |
| 20260507113029 | 12 | 278 | 6.4 | 17.7 | 0.00 | 0.00 | 0.00 | 76 | 1017.4 |
| 20260507111530 | 12 | 277 | 4.8 | 16.1 | 0.00 | 0.00 | 0.00 | 77 | 1017.3 |
| 20260507104535 | 12 | 267 | 3.2 | 12.9 | 0.00 | 0.00 | 0.00 | 75 | 1017.0 |
| 20260507100049 | 13 | 313 | 6.4 | 24.1 | 0.00 | 0.00 | 0.00 | 74 | 1017.1 |
| 20260507094535 | 13 | 304 | 6.4 | 14.5 | 0.00 | 0.00 | 0.00 | 76 | 1017.2 |
| 20260507093037 | 12 | 314 | 4.8 | 17.7 | 0.00 | 0.00 | 0.00 | 81 | 1017.2 |
| 20260507091535 | 11 | 347 | 1.6 | 8.0 | 0.00 | 0.00 | 0.00 | 83 | 1017.3 |
| 20260507090038 | 11 | 260 | 0.0 | 6.4 | 0.00 | 0.00 | 0.00 | 83 | 1017.2 |
| 20260507084644 | 12 | 240 | 0.0 | 4.8 | 0.00 | 0.00 | 0.00 | 82 | 1017.1 |
| 20260507083038 | 12 | 323 | 0.0 | 3.2 | 0.00 | 0.00 | 0.00 | 80 | 1017.1 |
| 20260507081537 | 13 | 292 | 0.0 | 1.6 | 0.00 | 0.00 | 0.00 | 76 | 1017.1 |
| 20260507080035 | 14 | 292 | 0.0 | 4.8 | 0.00 | 0.00 | 0.00 | 74 | 1017.2 |
| 20260507074609 | 15 | 335 | 3.2 | 11.3 | 0.00 | 0.00 | 0.00 | 74 | 1017.2 |
| 20260507073038 | 15 | 319 | 3.2 | 11.3 | 0.00 | 0.00 | 0.00 | 74 | 1017.1 |
| 20260507071545 | 14 | 280 | 3.2 | 11.3 | 0.00 | 0.00 | 0.00 | 76 | 1017.1 |
| 20260507070035 | 13 | 283 | 1.6 | 11.3 | 0.00 | 0.00 | 0.00 | 77 | 1017.1 |
| 20260507064537 | 14 | 281 | 0.0 | 8.0 | 0.00 | 0.00 | 0.00 | 75 | 1017.2 |
| 20260507063038 | 15 | 220 | 0.0 | 4.8 | 0.00 | 0.00 | 0.00 | 73 | 1017.2 |
| 20260507061535 | 15 | 259 | 0.0 | 6.4 | 0.00 | 0.00 | 0.00 | 71 | 1017.3 |
| 20260507060053 | 16 | 287 | 1.6 | 8.0 | 0.00 | 0.00 | 0.00 | 70 | 1017.4 |
| 20260507054535 | 16 | 289 | 3.2 | 16.1 | 0.00 | 0.00 | 0.00 | 70 | 1017.6 |
| 20260507053036 | 16 | 284 | 3.2 | 12.9 | 0.00 | 0.00 | 0.00 | 68 | 1017.7 |
| 20260507051535 | 16 | 246 | 0.0 | 6.4 | 0.00 | 0.00 | 0.00 | 67 | 1017.7 |
| 20260507050036 | 15 | 255 | 3.2 | 14.5 | 0.00 | 0.00 | 0.00 | 69 | 1017.7 |
| 20260507044607 | 14 | 245 | 1.6 | 11.3 | 0.00 | 0.00 | 0.00 | 68 | 1017.6 |
| 20260507043035 | 15 | 237 | 0.0 | 6.4 | 0.00 | 0.00 | 0.00 | 65 | 1017.6 |
| 20260507041534 | 16 | 210 | 0.0 | 6.4 | 0.00 | 0.00 | 0.00 | 62 | 1017.4 |
| 20260507040055 | 16 | 268 | 0.0 | 9.7 | 0.00 | 0.00 | 0.00 | 60 | 1017.2 |
| 20260507034557 | 18 | 17 | 0.0 | 4.8 | 0.00 | 0.00 | 0.00 | 56 | 1017.1 |
| 20260507034545 | 18 | 343 | 0.0 | 12.9 | 0.00 | 0.00 | 0.00 | 53 | 1017.0 |
| 20260507031540 | 18 | 261 | 3.2 | 12.9 | 0.00 | 0.00 | 0.00 | 54 | 1016.9 |
| 20260507030039 | 18 | 286 | 0.0 | 9.7 | 0.00 | 0.00 | 0.00 | 54 | 1016.9 |
| 20260507024539 | 18 | 255 | 0.0 | 8.0 | 0.00 | 0.00 | 0.00 | 54 | 1016.8 |
| 20260507023040 | 19 | 32 | 1.6 | 12.9 | 0.00 | 0.00 | 0.00 | 52 | 1016.6 |
| 20260507021538 | 20 | 352 | 1.6 | 11.3 | 0.00 | 0.00 | 0.00 | 50 | 1016.5 |
| 20260507020037 | 20 | 292 | 3.2 | 11.3 | 0.00 | 0.00 | 0.00 | 49 | 1016.4 |
| 20260507013043 | 20 | 299 | 6.4 | 22.5 | 0.00 | 0.00 | 0.00 | 48 | 1016.3 |
| 20260507011655 | 21 | 306 | 3.2 | 14.5 | 0.00 | 0.00 | 0.00 | 47 | 1016.3 |
| 20260507004549 | 21 | 307 | 1.6 | 9.7 | 0.00 | 0.00 | 0.00 | 46 | 1016.2 |
| 20260507003038 | 21 | 283 | 3.2 | 11.3 | 0.00 | 0.00 | 0.00 | 44 | 1016.1 |
| 20260507000034 | 22 | 278 | 4.8 | 20.9 | 0.00 | 0.00 | 0.00 | 44 | 1015.9 |
| 20260506234537 | 22 | 295 | 4.8 | 17.7 | 0.00 | 0.00 | 0.00 | 43 | 1015.7 |
| 20260506233036 | 23 | 292 | 8.0 | 19.3 | 0.00 | 0.00 | 0.00 | 42 | 1015.6 |
| 20260506231539 | 25 | 295 | 3.2 | 19.3 | 0.00 | 0.00 | 0.00 | 41 | 1015.6 |
| 20260506230039 | 24 | 269 | 6.4 | 22.5 | 0.00 | 0.00 | 0.00 | 42 | 1015.6 |
| 20260506224542 | 24 | 268 | 6.4 | 24.1 | 0.00 | 0.00 | 0.00 | 42 | 1015.6 |
| 20260506223038 | 25 | 294 | 8.0 | 29.0 | 0.00 | 0.00 | 0.00 | 42 | 1015.9 |
| 20260506221536 | 24 | 332 | 4.8 | 16.1 | 0.00 | 0.00 | 0.00 | 44 | 1016.2 |
| 20260506220108 | 25 | 324 | 4.8 | 22.5 | 0.00 | 0.00 | 0.00 | 42 | 1016.2 |
| 20260506220058 | 25 | 320 | 6.4 | 20.9 | 0.00 | 0.00 | 0.00 | 44 | 1016.1 |